Time,TemperatureF,DewpointF,PressureIn,WindDirection,WindDirectionDegrees,WindSpeedMPH,WindSpeedGustMPH,Humidity,HourlyPrecipIn,Conditions,Clouds,dailyrainin,SolarRadiationWatts/m^2,SoftwareType,DateUTC
2013-07-15 00:00:00,73.6,71.7,30.04,East,94,0.0,0.0,93,0.00,,,-99.99,1.0,HOBO +U30 +Weather +,2013-07-15 04:00:00,
2013-07-15 00:15:00,73.7,71.8,30.04,East,94,0.0,0.0,93,0.00,,,-99.99,1.0,HOBO +U30 +Weather +,2013-07-15 04:15:00,
2013-07-15 00:30:00,73.5,71.7,30.03,East,94,0.0,0.0,94,0.00,,,-99.99,1.0,HOBO +U30 +Weather +,2013-07-15 04:30:00,
2013-07-15 00:45:00,73.6,72.0,30.03,East,94,0.0,0.4,94,0.00,,,-99.99,1.0,HOBO +U30 +Weather +,2013-07-15 04:45:00,
2013-07-15 01:00:00,73.7,72.1,30.03,East,94,0.0,0.0,94,0.00,,,-99.99,1.0,HOBO +U30 +Weather +,2013-07-15 05:00:00,
2013-07-15 01:15:00,74.1,72.5,30.02,East,94,0.0,2.0,94,0.00,,,-99.99,1.0,HOBO +U30 +Weather +,2013-07-15 05:15:00,
2013-07-15 01:30:00,73.8,72.1,30.02,East,94,0.0,1.3,94,0.00,,,-99.99,1.0,HOBO +U30 +Weather +,2013-07-15 05:30:00,
2013-07-15 01:45:00,73.4,71.8,30.02,East,94,0.0,0.0,94,0.00,,,-99.99,1.0,HOBO +U30 +Weather +,2013-07-15 05:45:00,
2013-07-15 02:00:00,73.1,71.6,30.02,East,94,0.0,0.0,94,0.00,,,-99.99,1.0,HOBO +U30 +Weather +,2013-07-15 06:00:00,
2013-07-15 02:15:00,72.5,71.0,30.02,East,94,0.0,0.0,95,0.00,,,-99.99,1.0,HOBO +U30 +Weather +,2013-07-15 06:15:00,
2013-07-15 02:30:00,72.1,70.7,30.02,East,94,0.0,0.0,95,0.00,,,-99.99,1.0,HOBO +U30 +Weather +,2013-07-15 06:30:00,
2013-07-15 02:45:00,72.1,70.9,30.02,East,94,0.0,0.0,95,0.00,,,-99.99,1.0,HOBO +U30 +Weather +,2013-07-15 06:45:00,
2013-07-15 03:00:00,71.7,70.6,30.02,East,94,0.0,0.0,96,0.00,,,-99.99,1.0,HOBO +U30 +Weather +,2013-07-15 07:00:00,
2013-07-15 03:15:00,71.2,70.2,30.02,East,94,0.0,0.0,96,0.00,,,-99.99,1.0,HOBO +U30 +Weather +,2013-07-15 07:15:00,
2013-07-15 03:30:00,71.4,70.5,30.02,East,94,0.0,0.0,96,0.00,,,-99.99,1.0,HOBO +U30 +Weather +,2013-07-15 07:30:00,
2013-07-15 03:45:00,71.2,70.2,30.02,East,94,0.0,0.0,96,0.00,,,-99.99,1.0,HOBO +U30 +Weather +,2013-07-15 07:45:00,
2013-07-15 04:00:00,71.1,70.2,30.02,East,94,0.0,0.4,96,0.00,,,-99.99,1.0,HOBO +U30 +Weather +,2013-07-15 08:00:00,
2013-07-15 04:15:00,71.1,70.2,30.02,East,94,0.0,1.3,97,0.00,,,-99.99,1.0,HOBO +U30 +Weather +,2013-07-15 08:15:00,
2013-07-15 04:30:00,71.2,70.4,30.02,East,94,0.0,0.0,97,0.00,,,-99.99,1.0,HOBO +U30 +Weather +,2013-07-15 08:30:00,
2013-07-15 04:45:00,71.1,70.3,30.02,East,94,0.0,0.0,97,0.00,,,-99.99,1.0,HOBO +U30 +Weather +,2013-07-15 08:45:00,
2013-07-15 05:00:00,71.0,70.3,30.02,East,94,0.0,0.4,97,0.00,,,-99.99,1.0,HOBO +U30 +Weather +,2013-07-15 09:00:00,
2013-07-15 05:15:00,71.2,70.6,30.02,East,94,0.0,0.0,97,0.00,,,-99.99,3.0,HOBO +U30 +Weather +,2013-07-15 09:15:00,
2013-07-15 05:30:00,71.1,70.4,30.02,East,95,0.0,0.0,97,0.00,,,-99.99,12.0,HOBO +U30 +Weather +,2013-07-15 09:30:00,
2013-07-15 05:45:00,71.7,71.0,30.02,East,95,0.0,0.0,97,0.00,,,-99.99,41.0,HOBO +U30 +Weather +,2013-07-15 09:45:00,
2013-07-15 06:00:00,72.6,71.7,30.02,East,95,0.0,0.0,96,0.00,,,-99.99,77.0,HOBO +U30 +Weather +,2013-07-15 10:00:00,
2013-07-15 06:15:00,73.9,72.6,30.02,East,95,0.0,0.0,95,0.00,,,-99.99,111.0,HOBO +U30 +Weather +,2013-07-15 10:15:00,
2013-07-15 06:30:00,75.3,73.5,30.02,East,95,1.3,3.4,93,0.00,,,-99.99,147.0,HOBO +U30 +Weather +,2013-07-15 10:30:00,
2013-07-15 06:45:00,76.4,73.8,30.02,East,95,1.6,3.4,91,0.00,,,-99.99,59.0,HOBO +U30 +Weather +,2013-07-15 10:45:00,
2013-07-15 07:00:00,77.1,74.0,30.02,East,100,2.0,3.8,90,0.00,,,-99.99,216.0,HOBO +U30 +Weather +,2013-07-15 11:00:00,
2013-07-15 07:15:00,78.2,74.6,30.02,ESE,102,1.6,3.8,88,0.00,,,-99.99,77.0,HOBO +U30 +Weather +,2013-07-15 11:15:00,
2013-07-15 07:30:00,80.0,75.1,30.02,NE,48,1.6,4.3,84,0.00,,,-99.99,267.0,HOBO +U30 +Weather +,2013-07-15 11:30:00,
2013-07-15 07:45:00,80.2,74.6,30.02,NNW,329,1.6,4.3,83,0.00,,,-99.99,374.0,HOBO +U30 +Weather +,2013-07-15 11:45:00,
2013-07-15 08:00:00,81.3,74.6,30.02,NNW,329,1.3,5.8,79,0.00,,,-99.99,409.0,HOBO +U30 +Weather +,2013-07-15 12:00:00,
2013-07-15 08:15:00,81.5,73.5,30.02,NW,309,1.6,4.3,76,0.00,,,-99.99,453.0,HOBO +U30 +Weather +,2013-07-15 12:15:00,
2013-07-15 08:30:00,82.8,74.8,30.02,WNW,299,1.6,4.5,76,0.00,,,-99.99,462.0,HOBO +U30 +Weather +,2013-07-15 12:30:00,
2013-07-15 08:45:00,82.5,72.8,30.01,NNW,343,2.9,7.4,72,0.00,,,-99.99,483.0,HOBO +U30 +Weather +,2013-07-15 12:45:00,
2013-07-15 09:00:00,82.1,72.0,30.01,North,355,2.9,6.3,71,0.00,,,-99.99,504.0,HOBO +U30 +Weather +,2013-07-15 13:00:00,
2013-07-15 09:15:00,83.2,73.0,30.01,NNW,344,2.9,5.4,71,0.00,,,-99.99,574.0,HOBO +U30 +Weather +,2013-07-15 13:15:00,
2013-07-15 09:30:00,84.9,74.0,30.01,North,7,2.5,5.4,69,0.00,,,-99.99,619.0,HOBO +U30 +Weather +,2013-07-15 13:30:00,
2013-07-15 09:45:00,85.3,73.5,30.01,NW,314,2.5,5.8,68,0.00,,,-99.99,649.0,HOBO +U30 +Weather +,2013-07-15 13:45:00,
2013-07-15 10:00:00,85.9,73.4,30.01,NW,320,2.5,6.3,66,0.00,,,-99.99,688.0,HOBO +U30 +Weather +,2013-07-15 14:00:00,
2013-07-15 10:15:00,86.3,72.7,30.00,NNW,347,2.9,7.8,63,0.00,,,-99.99,614.0,HOBO +U30 +Weather +,2013-07-15 14:15:00,
2013-07-15 10:30:00,86.6,72.5,30.00,NNW,327,3.4,7.4,62,0.00,,,-99.99,763.0,HOBO +U30 +Weather +,2013-07-15 14:30:00,
2013-07-15 10:45:00,87.7,72.3,30.00,WNW,302,2.9,7.2,60,0.00,,,-99.99,842.0,HOBO +U30 +Weather +,2013-07-15 14:45:00,
2013-07-15 11:00:00,87.8,71.2,29.99,NNW,345,3.4,7.4,58,0.00,,,-99.99,898.0,HOBO +U30 +Weather +,2013-07-15 15:00:00,
2013-07-15 11:15:00,88.7,70.9,29.99,North,355,3.8,7.4,55,0.00,,,-99.99,952.0,HOBO +U30 +Weather +,2013-07-15 15:15:00,
2013-07-15 11:30:00,89.4,71.7,30.00,North,355,2.9,7.2,56,0.00,,,-99.99,1068.0,HOBO +U30 +Weather +,2013-07-15 15:30:00,
2013-07-15 11:45:00,89.2,72.4,30.00,NW,321,2.9,7.2,57,0.00,,,-99.99,1022.0,HOBO +U30 +Weather +,2013-07-15 15:45:00,
2013-07-15 12:00:00,90.6,73.4,30.00,WNW,286,3.4,7.4,57,0.00,,,-99.99,494.0,HOBO +U30 +Weather +,2013-07-15 16:00:00,
2013-07-15 12:15:00,89.8,72.1,29.99,NNW,345,3.4,8.3,56,0.00,,,-99.99,1118.0,HOBO +U30 +Weather +,2013-07-15 16:15:00,
2013-07-15 12:30:00,89.5,71.6,29.99,NW,313,2.9,9.2,55,0.00,,,-99.99,1042.0,HOBO +U30 +Weather +,2013-07-15 16:30:00,
2013-07-15 12:45:00,90.7,71.9,29.98,NNW,345,4.5,9.2,54,0.00,,,-99.99,1097.0,HOBO +U30 +Weather +,2013-07-15 16:45:00,
2013-07-15 13:00:00,91.1,71.7,29.98,NNW,330,3.8,9.6,53,0.00,,,-99.99,349.0,HOBO +U30 +Weather +,2013-07-15 17:00:00,
2013-07-15 13:15:00,90.1,70.4,29.98,North,3,4.9,10.7,52,0.00,,,-99.99,517.0,HOBO +U30 +Weather +,2013-07-15 17:15:00,
2013-07-15 13:30:00,91.7,71.9,29.98,North,3,3.8,8.3,52,0.00,,,-99.99,567.0,HOBO +U30 +Weather +,2013-07-15 17:30:00,
2013-07-15 13:45:00,88.4,69.1,29.98,North,355,3.8,11.2,53,0.00,,,-99.99,356.0,HOBO +U30 +Weather +,2013-07-15 17:45:00,
2013-07-15 14:00:00,87.7,71.0,29.98,North,11,3.8,10.3,57,0.00,,,-99.99,381.0,HOBO +U30 +Weather +,2013-07-15 18:00:00,
2013-07-15 14:15:00,90.1,73.3,29.98,NNW,327,2.0,5.4,57,0.00,,,-99.99,894.0,HOBO +U30 +Weather +,2013-07-15 18:15:00,
2013-07-15 14:30:00,91.7,73.5,29.97,WNW,295,2.5,6.3,55,0.00,,,-99.99,876.0,HOBO +U30 +Weather +,2013-07-15 18:30:00,
2013-07-15 14:45:00,90.1,70.9,29.96,NW,313,3.8,10.1,53,0.00,,,-99.99,259.0,HOBO +U30 +Weather +,2013-07-15 18:45:00,
2013-07-15 15:00:00,89.9,71.2,29.96,North,10,4.3,8.7,54,0.00,,,-99.99,269.0,HOBO +U30 +Weather +,2013-07-15 19:00:00,
2013-07-15 15:15:00,89.5,71.1,29.96,North,350,3.8,7.8,54,0.00,,,-99.99,327.0,HOBO +U30 +Weather +,2013-07-15 19:15:00,
2013-07-15 15:30:00,90.6,71.7,29.96,North,3,4.3,8.7,54,0.00,,,-99.99,653.0,HOBO +U30 +Weather +,2013-07-15 19:30:00,
2013-07-15 15:45:00,89.4,70.4,29.96,North,7,4.5,10.7,53,0.00,,,-99.99,289.0,HOBO +U30 +Weather +,2013-07-15 19:45:00,
2013-07-15 16:00:00,91.0,72.7,29.96,NE,37,4.5,10.7,55,0.00,,,-99.99,373.0,HOBO +U30 +Weather +,2013-07-15 20:00:00,
2013-07-15 16:15:00,90.0,71.1,29.96,ENE,69,3.8,9.2,53,0.00,,,-99.99,542.0,HOBO +U30 +Weather +,2013-07-15 20:15:00,
2013-07-15 16:30:00,90.0,70.6,29.96,NNE,21,3.4,7.8,52,0.00,,,-99.99,418.0,HOBO +U30 +Weather +,2013-07-15 20:30:00,
2013-07-15 16:45:00,87.9,69.4,29.96,North,8,2.9,4.9,54,0.00,,,-99.99,182.0,HOBO +U30 +Weather +,2013-07-15 20:45:00,
2013-07-15 17:00:00,87.4,70.6,29.96,NNE,29,2.0,3.8,57,0.00,,,-99.99,168.0,HOBO +U30 +Weather +,2013-07-15 21:00:00,
2013-07-15 17:15:00,86.3,70.7,29.95,NE,39,1.6,4.3,59,0.00,,,-99.99,154.0,HOBO +U30 +Weather +,2013-07-15 21:15:00,
2013-07-15 17:30:00,86.8,71.2,29.95,NE,45,0.9,2.5,60,0.00,,,-99.99,143.0,HOBO +U30 +Weather +,2013-07-15 21:30:00,
2013-07-15 17:45:00,86.2,71.8,29.94,NE,45,0.4,1.3,62,0.00,,,-99.99,156.0,HOBO +U30 +Weather +,2013-07-15 21:45:00,
2013-07-15 18:00:00,86.7,74.9,29.94,NE,45,0.0,0.9,67,0.00,,,-99.99,174.0,HOBO +U30 +Weather +,2013-07-15 22:00:00,
2013-07-15 18:15:00,85.8,74.5,29.94,NE,41,0.0,0.9,69,0.00,,,-99.99,98.0,HOBO +U30 +Weather +,2013-07-15 22:15:00,
2013-07-15 18:30:00,84.4,74.6,29.94,NNE,32,0.4,1.6,72,0.00,,,-99.99,82.0,HOBO +U30 +Weather +,2013-07-15 22:30:00,
2013-07-15 18:45:00,83.6,74.7,29.94,NNE,31,0.4,1.6,74,0.00,,,-99.99,167.0,HOBO +U30 +Weather +,2013-07-15 22:45:00,
2013-07-15 19:00:00,86.3,76.4,29.94,NNE,31,0.0,0.9,72,0.00,,,-99.99,173.0,HOBO +U30 +Weather +,2013-07-15 23:00:00,
2013-07-15 19:15:00,84.9,73.9,29.95,NNE,31,0.0,0.9,69,0.00,,,-99.99,61.0,HOBO +U30 +Weather +,2013-07-15 23:15:00,
2013-07-15 19:30:00,82.4,73.9,29.95,NNE,31,0.4,1.3,75,0.00,,,-99.99,51.0,HOBO +U30 +Weather +,2013-07-15 23:30:00,
2013-07-15 19:45:00,81.6,74.0,29.95,NNE,31,0.0,0.9,77,0.00,,,-99.99,29.0,HOBO +U30 +Weather +,2013-07-15 23:45:00,
2013-07-15 20:00:00,81.2,73.3,29.95,NNE,31,0.4,2.0,76,0.00,,,-99.99,19.0,HOBO +U30 +Weather +,2013-07-16 00:00:00,
2013-07-15 20:15:00,80.8,73.0,29.95,NNE,31,0.4,2.9,77,0.00,,,-99.99,6.0,HOBO +U30 +Weather +,2013-07-16 00:15:00,
2013-07-15 20:30:00,81.1,73.3,29.96,NE,34,0.9,3.4,77,0.00,,,-99.99,2.0,HOBO +U30 +Weather +,2013-07-16 00:30:00,
2013-07-15 20:45:00,80.7,72.7,29.96,ENE,60,0.4,2.0,76,0.00,,,-99.99,1.0,HOBO +U30 +Weather +,2013-07-16 00:45:00,
2013-07-15 21:00:00,81.1,72.8,29.96,ENE,60,0.9,3.4,76,0.00,,,-99.99,1.0,HOBO +U30 +Weather +,2013-07-16 01:00:00,
2013-07-15 21:15:00,79.9,72.3,29.97,ENE,60,1.3,3.8,77,0.00,,,-99.99,1.0,HOBO +U30 +Weather +,2013-07-16 01:15:00,
2013-07-15 21:30:00,80.7,73.3,29.97,ENE,60,1.6,4.3,78,0.00,,,-99.99,1.0,HOBO +U30 +Weather +,2013-07-16 01:30:00,
2013-07-15 21:45:00,79.4,72.7,29.97,ENE,60,0.9,2.9,79,0.00,,,-99.99,1.0,HOBO +U30 +Weather +,2013-07-16 01:45:00,
2013-07-15 22:00:00,77.9,72.0,29.97,NE,56,0.4,3.4,82,0.00,,,-99.99,1.0,HOBO +U30 +Weather +,2013-07-16 02:00:00,
2013-07-15 22:15:00,76.5,71.7,29.97,NE,56,0.4,1.6,85,0.00,,,-99.99,1.0,HOBO +U30 +Weather +,2013-07-16 02:15:00,
2013-07-15 22:30:00,76.2,72.3,29.97,NE,56,0.0,1.3,87,0.00,,,-99.99,1.0,HOBO +U30 +Weather +,2013-07-16 02:30:00,
2013-07-15 22:45:00,75.8,72.2,29.97,NE,56,0.0,1.3,88,0.00,,,-99.99,1.0,HOBO +U30 +Weather +,2013-07-16 02:45:00,
2013-07-15 23:00:00,75.5,72.3,29.96,NE,56,0.4,1.6,89,0.00,,,-99.99,1.0,HOBO +U30 +Weather +,2013-07-16 03:00:00,
2013-07-15 23:15:00,75.5,72.5,29.96,NE,56,0.4,1.6,90,0.00,,,-99.99,1.0,HOBO +U30 +Weather +,2013-07-16 03:15:00,
2013-07-15 23:30:00,74.9,72.1,29.96,NE,56,0.4,1.6,90,0.00,,,-99.99,1.0,HOBO +U30 +Weather +,2013-07-16 03:30:00,
2013-07-15 23:45:00,74.5,71.9,29.96,NE,56,0.0,0.9,91,0.00,,,-99.99,1.0,HOBO +U30 +Weather +,2013-07-16 03:45:00,